createdAt,value
2017-12-27T00:00:43.885Z,2
2017-12-27T00:01:53.860Z,2.04
2017-12-27T00:03:03.839Z,2.04
2017-12-27T00:04:13.838Z,2.01
2017-12-27T00:05:23.555Z,2.01
2017-12-27T00:06:33.531Z,2.05
2017-12-27T00:07:43.508Z,2.04
2017-12-27T00:08:53.491Z,2.04
2017-12-27T00:10:03.531Z,2.04
2017-12-27T00:11:13.244Z,2.14
2017-12-27T00:12:23.224Z,2.08
2017-12-27T00:13:32.671Z,2.05
2017-12-27T00:14:42.648Z,2.14
2017-12-27T00:15:52.363Z,2.01
2017-12-27T00:17:01.824Z,2.05
2017-12-27T00:18:11.531Z,2.03
2017-12-27T00:19:21.547Z,2.01
2017-12-27T00:20:31.531Z,2.04
2017-12-27T00:21:41.244Z,2.07
2017-12-27T00:22:51.219Z,2.01
2017-12-27T00:24:00.932Z,1.97
2017-12-27T00:25:10.914Z,2.01
2017-12-27T00:26:20.888Z,2.01
2017-12-27T00:27:30.606Z,1.98
2017-12-27T00:28:40.581Z,2.01
2017-12-27T00:29:50.604Z,2
2017-12-27T00:31:00.585Z,1.97
2017-12-27T00:32:10.567Z,1.98
2017-12-27T00:33:20.565Z,2
2017-12-27T00:34:30.013Z,2
2017-12-27T00:35:39.729Z,1.92
2017-12-27T00:36:49.705Z,1.95
2017-12-27T00:37:59.413Z,1.97
2017-12-27T00:39:09.134Z,1.95
2017-12-27T00:40:18.846Z,1.98
2017-12-27T00:41:28.566Z,1.98
2017-12-27T00:42:38.279Z,1.98
2017-12-27T00:43:47.995Z,2
2017-12-27T00:44:57.971Z,1.98
2017-12-27T00:46:07.683Z,2
2017-12-27T00:47:17.398Z,1.93
2017-12-27T00:48:27.380Z,1.92
2017-12-27T00:49:37.104Z,1.85
2017-12-27T00:50:46.817Z,1.88
2017-12-27T00:51:56.263Z,1.82
2017-12-27T00:53:06.238Z,1.86
2017-12-27T00:54:15.683Z,1.82
2017-12-27T00:55:25.391Z,1.86
2017-12-27T00:56:35.102Z,1.97
2017-12-27T00:57:45.080Z,1.86
2017-12-27T00:58:54.525Z,1.86
2017-12-27T01:00:04.238Z,1.88
2017-12-27T01:01:13.955Z,1.88
2017-12-27T01:02:23.667Z,1.86
2017-12-27T01:03:33.113Z,1.79
2017-12-27T01:04:43.089Z,1.79
2017-12-27T01:05:52.807Z,1.88
2017-12-27T01:07:02.255Z,1.81
2017-12-27T01:08:11.703Z,1.79
2017-12-27T01:09:21.493Z,1.85
2017-12-27T01:10:31.466Z,1.81
2017-12-27T01:11:41.439Z,1.85
2017-12-27T01:12:51.456Z,1.84
2017-12-27T01:14:01.430Z,1.86
2017-12-27T01:15:11.455Z,1.75
2017-12-27T01:16:21.432Z,1.7
2017-12-27T01:17:31.409Z,1.78
2017-12-27T01:18:41.386Z,1.61
2017-12-27T01:19:51.362Z,1.61
2017-12-27T01:21:01.380Z,1.79
2017-12-27T01:22:11.364Z,1.64
2017-12-27T01:23:21.339Z,1.66
2017-12-27T01:24:31.068Z,1.61
2017-12-27T01:25:41.051Z,1.66
2017-12-27T01:26:50.763Z,1.7
2017-12-27T01:28:00.737Z,1.61
2017-12-27T01:29:10.720Z,1.68
2017-12-27T01:30:20.697Z,1.6
2017-12-27T01:31:30.153Z,1.63
2017-12-27T01:32:40.127Z,1.6
2017-12-27T01:33:49.841Z,1.67
2017-12-27T01:34:59.560Z,1.71
2017-12-27T01:36:09.849Z,1.58
2017-12-27T01:37:19.565Z,1.75
2017-12-27T01:38:29.543Z,1.67
2017-12-27T01:39:39.520Z,1.74
2017-12-27T01:40:49.494Z,1.61
2017-12-27T01:41:58.943Z,1.74
2017-12-27T01:43:08.390Z,1.78
2017-12-27T01:44:18.361Z,1.7
2017-12-27T01:45:28.073Z,1.61
2017-12-27T01:46:38.057Z,1.66
2017-12-27T01:47:47.766Z,1.67
2017-12-27T01:48:57.477Z,1.7
2017-12-27T01:50:07.191Z,1.71
2017-12-27T01:51:17.171Z,1.61
2017-12-27T01:52:27.152Z,1.74
2017-12-27T01:53:37.124Z,1.71
2017-12-27T01:54:47.098Z,1.66
2017-12-27T01:55:56.805Z,1.64
2017-12-27T01:57:06.782Z,1.64
2017-12-27T01:58:16.492Z,1.64
2017-12-27T01:59:28.482Z,1.64
2017-12-27T02:00:38.470Z,1.6
2017-12-27T02:01:48.178Z,1.58
2017-12-27T02:02:58.158Z,1.53
2017-12-27T02:04:08.181Z,1.58
2017-12-27T02:05:17.891Z,1.57
2017-12-27T02:06:27.864Z,1.6
2017-12-27T02:07:37.840Z,1.7
2017-12-27T02:08:47.550Z,1.66
2017-12-27T02:09:57.532Z,1.67
2017-12-27T02:11:07.522Z,1.61
2017-12-27T02:12:17.508Z,1.75
2017-12-27T02:13:27.483Z,1.75
2017-12-27T02:14:37.195Z,1.71
2017-12-27T02:15:47.174Z,1.66
2017-12-27T02:16:57.146Z,1.67
2017-12-27T02:18:06.858Z,1.74
2017-12-27T02:19:16.841Z,1.67
2017-12-27T02:20:26.287Z,1.61
2017-12-27T02:21:36.262Z,1.67
2017-12-27T02:22:46.242Z,1.67
2017-12-27T02:23:55.688Z,1.61
2017-12-27T02:25:05.396Z,1.68
2017-12-27T02:26:15.370Z,1.61
2017-12-27T02:27:25.341Z,1.68
2017-12-27T02:28:35.059Z,1.61
2017-12-27T02:29:45.033Z,1.67
2017-12-27T02:30:55.009Z,1.64
2017-12-27T02:32:04.985Z,1.67
2017-12-27T02:33:14.969Z,1.66
2017-12-27T02:34:24.943Z,1.64
2017-12-27T02:35:34.402Z,1.63
2017-12-27T02:36:44.379Z,1.68
2017-12-27T02:37:54.095Z,1.66
2017-12-27T02:39:03.545Z,1.61
2017-12-27T02:40:13.520Z,1.63
2017-12-27T02:41:23.230Z,1.63
2017-12-27T02:42:32.943Z,1.56
2017-12-27T02:43:42.929Z,1.66
2017-12-27T02:44:52.908Z,1.63
2017-12-27T02:46:02.885Z,1.58
2017-12-27T02:47:12.605Z,1.6
2017-12-27T02:48:22.584Z,1.63
2017-12-27T02:49:32.567Z,1.57
2017-12-27T02:50:42.544Z,1.6
2017-12-27T02:51:52.257Z,1.57
2017-12-27T02:53:02.242Z,1.53
2017-12-27T02:54:12.237Z,1.5
2017-12-27T02:55:22.216Z,1.49
2017-12-27T02:56:31.927Z,1.58
2017-12-27T02:57:41.642Z,1.57
2017-12-27T02:58:51.614Z,1.49
2017-12-27T03:00:01.322Z,1.4
2017-12-27T03:01:11.043Z,1.42
2017-12-27T03:02:21.014Z,1.34
2017-12-27T03:03:30.728Z,1.38
2017-12-27T03:04:40.440Z,1.34
2017-12-27T03:05:50.421Z,1.4
2017-12-27T03:07:00.393Z,1.34
2017-12-27T03:08:10.374Z,1.4
2017-12-27T03:09:20.386Z,1.38
2017-12-27T03:10:30.359Z,1.38
2017-12-27T03:11:40.338Z,1.38
2017-12-27T03:12:50.313Z,1.42
2017-12-27T03:14:00.084Z,1.36
2017-12-27T03:15:10.066Z,1.32
2017-12-27T03:16:19.779Z,1.25
2017-12-27T03:17:29.493Z,1.25
2017-12-27T03:18:39.476Z,1.22
2017-12-27T03:19:48.923Z,1.25
2017-12-27T03:20:58.687Z,1.25
2017-12-27T03:22:08.397Z,1.25
2017-12-27T03:23:18.416Z,1.24
2017-12-27T03:24:28.393Z,1.22
2017-12-27T03:25:38.100Z,1.28
2017-12-27T03:26:47.858Z,1.32
2017-12-27T03:27:57.568Z,1.25
2017-12-27T03:29:07.544Z,1.3
2017-12-27T03:30:17.527Z,1.21
2017-12-27T03:31:27.512Z,1.27
2017-12-27T03:32:36.957Z,1.22
2017-12-27T03:33:46.935Z,1.18
2017-12-27T03:34:56.909Z,1.12
2017-12-27T03:36:06.621Z,1.16
2017-12-27T03:37:16.599Z,1.13
2017-12-27T03:38:26.306Z,1.12
2017-12-27T03:39:36.281Z,1.12
2017-12-27T03:40:46.000Z,1.04
2017-12-27T03:41:55.982Z,1.02
2017-12-27T03:43:05.688Z,0.96
2017-12-27T03:44:15.665Z,1.06
2017-12-27T03:45:25.639Z,1.03
2017-12-27T03:46:35.622Z,1
2017-12-27T03:47:45.339Z,0.95
2017-12-27T03:48:54.786Z,0.96
2017-12-27T03:50:04.231Z,0.95
2017-12-27T03:51:14.207Z,1.03
2017-12-27T03:52:23.919Z,1.09
2017-12-27T03:53:33.916Z,1.02
2017-12-27T03:54:43.897Z,0.96
2017-12-27T03:55:53.875Z,0.95
2017-12-27T03:57:03.582Z,1.04
2017-12-27T03:58:13.340Z,1
2017-12-27T03:59:23.050Z,1.02
2017-12-27T04:03:23.888Z,0.92
2017-12-27T04:04:33.860Z,1.04
2017-12-27T04:05:43.837Z,1.02
2017-12-27T04:06:53.813Z,0.94
2017-12-27T04:08:03.524Z,0.95
2017-12-27T04:09:13.512Z,0.95
2017-12-27T04:10:23.537Z,0.95
2017-12-27T04:11:33.245Z,0.94
2017-12-27T04:12:43.215Z,0.78
2017-12-27T04:13:52.924Z,0.85
2017-12-27T04:15:02.896Z,0.95
2017-12-27T04:16:12.343Z,0.95
2017-12-27T04:17:22.315Z,0.86
2017-12-27T04:18:32.293Z,0.85
2017-12-27T04:19:42.267Z,0.81
2017-12-27T04:20:52.243Z,0.81
2017-12-27T04:22:02.214Z,0.82
2017-12-27T04:23:11.919Z,0.85
2017-12-27T04:24:21.894Z,0.88
2017-12-27T04:25:31.868Z,0.89
2017-12-27T04:26:41.846Z,0.82
2017-12-27T04:27:51.823Z,0.82
2017-12-27T04:29:01.797Z,0.82
2017-12-27T04:30:11.506Z,0.82
2017-12-27T04:31:21.479Z,0.82
2017-12-27T04:32:31.455Z,0.78
2017-12-27T04:33:41.163Z,0.76
2017-12-27T04:34:51.137Z,0.78
2017-12-27T04:36:01.114Z,0.74
2017-12-27T04:37:11.090Z,0.71
2017-12-27T04:38:21.069Z,0.59
2017-12-27T04:39:30.776Z,0.63
2017-12-27T04:40:40.754Z,0.64
2017-12-27T04:41:50.729Z,0.59
2017-12-27T04:43:00.703Z,0.56
2017-12-27T04:44:10.419Z,0.59
2017-12-27T04:45:20.397Z,0.47
2017-12-27T04:46:30.372Z,0.48
2017-12-27T04:47:40.349Z,0.52
2017-12-27T04:48:49.797Z,0.48
2017-12-27T04:49:59.769Z,0.47
2017-12-27T04:51:09.485Z,0.44
2017-12-27T04:52:19.463Z,0.42
2017-12-27T04:53:28.913Z,0.47
2017-12-27T04:54:38.890Z,0.48
2017-12-27T04:55:48.870Z,0.44
2017-12-27T04:56:58.840Z,0.42
2017-12-27T04:58:08.552Z,0.39
2017-12-27T04:59:18.268Z,0.4
2017-12-27T05:00:27.982Z,0.36
2017-12-27T05:01:37.709Z,0.37
2017-12-27T05:02:47.686Z,0.36
2017-12-27T05:03:57.656Z,0.36
2017-12-27T05:05:07.634Z,0.33
2017-12-27T05:06:17.607Z,0.29
2017-12-27T05:07:27.582Z,0.26
2017-12-27T05:08:37.559Z,0.34
2017-12-27T05:09:47.542Z,0.37
2017-12-27T05:10:57.522Z,0.4
2017-12-27T05:12:07.238Z,0.34
2017-12-27T05:13:16.958Z,0.47
2017-12-27T05:14:26.673Z,0.63
2017-12-27T05:15:36.388Z,0.61
2017-12-27T05:16:46.365Z,0.64
2017-12-27T05:17:55.549Z,0.66
2017-12-27T05:19:05.531Z,0.71
2017-12-27T05:20:15.238Z,0.77
2017-12-27T05:21:25.217Z,0.89
2017-12-27T05:22:35.195Z,0.81
2017-12-27T05:23:45.166Z,0.95
2017-12-27T05:24:55.151Z,1.03
2017-12-27T05:26:04.870Z,1.06
2017-12-27T05:27:14.846Z,1.06
2017-12-27T05:28:24.557Z,1.09
2017-12-27T05:29:34.533Z,1.09
2017-12-27T05:30:44.509Z,1.12
2017-12-27T05:31:54.486Z,1.09
2017-12-27T05:33:04.462Z,1.16
2017-12-27T05:34:13.907Z,1.16
2017-12-27T05:35:23.883Z,1.14
2017-12-27T05:36:33.594Z,1.13
2017-12-27T05:37:43.574Z,1.13
2017-12-27T05:38:53.554Z,1.32
2017-12-27T05:40:03.524Z,1.25
2017-12-27T05:41:12.970Z,1.31
2017-12-27T05:42:22.685Z,1.31
2017-12-27T05:43:32.397Z,1.32
2017-12-27T05:44:42.371Z,1.28
2017-12-27T05:45:52.348Z,1.32
2017-12-27T05:47:02.319Z,1.36
2017-12-27T05:48:12.030Z,1.34
2017-12-27T05:49:22.011Z,1.38
2017-12-27T05:50:31.459Z,1.43
2017-12-27T05:51:41.170Z,1.42
2017-12-27T05:52:51.141Z,1.39
2017-12-27T05:54:01.113Z,1.43
2017-12-27T05:55:11.085Z,1.46
2017-12-27T05:56:20.793Z,1.48
2017-12-27T05:57:30.242Z,1.5
2017-12-27T05:58:40.222Z,1.56
2017-12-27T05:59:50.194Z,1.56
2017-12-27T06:01:00.168Z,1.53
2017-12-27T06:02:10.140Z,1.52
2017-12-27T06:03:20.117Z,1.49
2017-12-27T06:04:29.831Z,1.48
2017-12-27T06:05:39.811Z,1.52
2017-12-27T06:06:49.827Z,1.49
2017-12-27T06:07:59.801Z,1.49
2017-12-27T06:09:09.535Z,1.5
2017-12-27T06:10:19.569Z,1.56
2017-12-27T06:11:29.276Z,1.53
2017-12-27T06:12:39.250Z,1.52
2017-12-27T06:13:49.227Z,1.5
2017-12-27T06:14:59.196Z,1.49
2017-12-27T06:16:08.646Z,1.53
2017-12-27T06:17:20.363Z,1.45
2017-12-27T06:18:30.334Z,1.49
2017-12-27T06:19:40.315Z,1.5
2017-12-27T06:20:50.029Z,1.5
2017-12-27T06:21:59.739Z,1.52
2017-12-27T06:23:09.716Z,1.48
2017-12-27T06:24:19.424Z,1.52
2017-12-27T06:25:29.142Z,1.49
2017-12-27T06:26:39.122Z,1.45
2017-12-27T06:27:49.095Z,1.52
2017-12-27T06:28:59.076Z,1.52
2017-12-27T06:30:09.058Z,1.49
2017-12-27T06:31:19.054Z,1.5
2017-12-27T06:32:28.506Z,1.53
2017-12-27T06:33:38.499Z,1.49
2017-12-27T06:34:48.476Z,1.52
2017-12-27T06:35:58.450Z,1.56
2017-12-27T06:37:08.429Z,1.53
2017-12-27T06:38:17.871Z,1.52
2017-12-27T06:39:27.584Z,1.56
2017-12-27T06:40:37.297Z,1.57
2017-12-27T06:41:47.270Z,1.53
2017-12-27T06:42:57.245Z,1.48
2017-12-27T06:44:07.230Z,1.61
2017-12-27T06:45:16.679Z,1.56
2017-12-27T06:46:26.131Z,1.52
2017-12-27T06:47:36.104Z,1.56
2017-12-27T06:48:46.083Z,1.58
2017-12-27T06:49:56.060Z,1.6
2017-12-27T06:51:05.507Z,1.67
2017-12-27T06:52:17.482Z,1.67
2017-12-27T06:53:27.199Z,1.7
2017-12-27T06:54:37.172Z,1.63
2017-12-27T06:55:47.148Z,1.64
2017-12-27T06:56:57.127Z,1.63
2017-12-27T06:58:07.100Z,1.67
2017-12-27T06:59:16.811Z,1.66
2017-12-27T07:00:26.259Z,1.67
2017-12-27T07:01:36.250Z,1.81
2017-12-27T07:02:45.697Z,1.7
2017-12-27T07:03:55.405Z,1.76
2017-12-27T07:05:05.383Z,1.71
2017-12-27T07:06:15.359Z,1.75
2017-12-27T07:07:25.339Z,1.75
2017-12-27T07:08:35.317Z,1.75
2017-12-27T07:09:45.026Z,1.74
2017-12-27T07:10:54.471Z,1.78
2017-12-27T07:12:03.918Z,1.74
2017-12-27T07:13:13.893Z,1.75
2017-12-27T07:14:23.864Z,1.81
2017-12-27T07:15:33.839Z,1.84
2017-12-27T07:16:43.811Z,1.81
2017-12-27T07:17:53.788Z,1.82
2017-12-27T07:19:03.763Z,1.89
2017-12-27T07:20:13.484Z,1.84
2017-12-27T07:21:23.457Z,1.84
2017-12-27T07:22:33.433Z,1.85
2017-12-27T07:23:43.411Z,1.93
2017-12-27T07:24:52.854Z,1.84
2017-12-27T07:26:02.828Z,1.93
2017-12-27T07:27:12.540Z,1.79
2017-12-27T07:28:22.248Z,1.81
2017-12-27T07:29:31.968Z,1.79
2017-12-27T07:30:41.951Z,1.89
2017-12-27T07:31:51.932Z,1.84
2017-12-27T07:33:01.914Z,1.88
2017-12-27T07:34:11.626Z,1.81
2017-12-27T07:35:21.344Z,1.84
2017-12-27T07:36:31.062Z,1.81
2017-12-27T07:37:41.042Z,1.88
2017-12-27T07:38:51.018Z,1.88
2017-12-27T07:40:01.003Z,1.92
2017-12-27T07:41:10.713Z,1.84
2017-12-27T07:42:20.426Z,1.78
2017-12-27T07:43:29.608Z,1.82
2017-12-27T07:44:39.590Z,1.93
2017-12-27T07:45:49.565Z,1.97
2017-12-27T07:46:59.543Z,1.88
2017-12-27T07:48:09.519Z,1.85
2017-12-27T07:49:19.501Z,1.88
2017-12-27T07:50:29.226Z,1.86
2017-12-27T07:51:39.202Z,1.88
2017-12-27T07:52:49.234Z,1.92
2017-12-27T07:53:59.210Z,1.93
2017-12-27T07:55:09.190Z,1.86
2017-12-27T07:56:18.900Z,1.86
2017-12-27T07:57:28.612Z,1.95
2017-12-27T07:58:38.325Z,1.98
2017-12-27T07:59:47.776Z,2.01
2017-12-27T08:00:57.489Z,2.01
2017-12-27T08:02:07.189Z,2.01
2017-12-27T08:03:17.166Z,2.01
2017-12-27T08:04:26.879Z,1.92
2017-12-27T08:05:36.863Z,2.03
2017-12-27T08:06:46.580Z,1.95
2017-12-27T08:07:56.557Z,2.05
2017-12-27T08:09:06.535Z,2.05
2017-12-27T08:10:16.246Z,2.14
2017-12-27T08:11:25.697Z,2.08
2017-12-27T08:12:35.728Z,2.12
2017-12-27T08:13:45.451Z,2.01
2017-12-27T08:14:54.636Z,2.1
2017-12-27T08:16:04.613Z,2.05
2017-12-27T08:17:14.590Z,2.18
2017-12-27T08:18:24.301Z,2.14
2017-12-27T08:19:33.753Z,2.18
2017-12-27T08:20:43.729Z,2.12
2017-12-27T08:21:53.712Z,2.05
2017-12-27T08:23:03.690Z,2.04
2017-12-27T08:24:13.403Z,2.12
2017-12-27T08:25:23.382Z,2.12
2017-12-27T08:26:33.355Z,2.16
2017-12-27T08:27:43.064Z,2.03
2017-12-27T08:28:53.045Z,2.14
2017-12-27T08:30:02.756Z,2.1
2017-12-27T08:31:12.467Z,2.14
2017-12-27T08:32:22.184Z,2.15
2017-12-27T08:33:31.894Z,2
2017-12-27T08:34:41.868Z,1.97
2017-12-27T08:35:51.848Z,2.08
2017-12-27T08:37:01.562Z,2.15
2017-12-27T08:38:11.543Z,2.1
2017-12-27T08:39:20.991Z,2.1
2017-12-27T08:40:30.967Z,2.16
2017-12-27T08:41:40.942Z,2.21
2017-12-27T08:42:50.925Z,2.19
2017-12-27T08:44:00.956Z,2.22
2017-12-27T08:45:10.933Z,2.19
2017-12-27T08:46:20.906Z,2.1
2017-12-27T08:47:30.621Z,2.16
2017-12-27T08:48:40.334Z,2.07
2017-12-27T08:49:50.310Z,2.1
2017-12-27T08:51:00.288Z,2.21
2017-12-27T08:52:10.003Z,2.21
2017-12-27T08:53:19.978Z,2.19
2017-12-27T08:54:29.957Z,2.16
2017-12-27T08:55:39.670Z,2.16
2017-12-27T08:56:49.393Z,2.16
2017-12-27T08:57:59.366Z,2.19
2017-12-27T08:59:09.082Z,2.16
2017-12-27T09:00:19.304Z,2.21
2017-12-27T09:01:29.016Z,2.18
2017-12-27T09:02:38.997Z,2.21
2017-12-27T09:03:48.711Z,2.26
2017-12-27T09:04:58.740Z,2.26
2017-12-27T09:06:08.452Z,2.28
2017-12-27T09:07:18.434Z,2.22
2017-12-27T09:08:27.881Z,2.26
2017-12-27T09:09:37.857Z,2.19
2017-12-27T09:10:47.577Z,2.16
2017-12-27T09:11:57.548Z,2.26
2017-12-27T09:13:07.524Z,2.19
2017-12-27T09:14:17.501Z,2.28
2017-12-27T09:15:27.259Z,2.18
2017-12-27T09:16:37.243Z,2.22
2017-12-27T09:17:47.223Z,2.25
2017-12-27T09:18:56.942Z,2.33
2017-12-27T09:20:06.659Z,2.3
2017-12-27T09:21:16.642Z,2.28
2017-12-27T09:22:26.360Z,2.33
2017-12-27T09:23:36.083Z,2.33
2017-12-27T09:24:46.064Z,2.32
2017-12-27T09:25:55.774Z,2.25
2017-12-27T09:27:05.483Z,2.34
2017-12-27T09:28:15.467Z,2.43
2017-12-27T09:29:25.182Z,2.4
2017-12-27T09:30:35.160Z,2.37
2017-12-27T09:31:45.145Z,2.4
2017-12-27T09:32:55.122Z,2.4
2017-12-27T09:34:05.100Z,2.39
2017-12-27T09:35:15.085Z,2.47
2017-12-27T09:36:24.532Z,2.41
2017-12-27T09:37:34.506Z,2.43
2017-12-27T09:38:44.483Z,2.41
2017-12-27T09:39:54.196Z,2.43
2017-12-27T09:41:03.379Z,2.43
2017-12-27T09:42:13.359Z,2.41
2017-12-27T09:43:23.342Z,2.47
2017-12-27T09:44:33.057Z,2.5
2017-12-27T09:45:43.038Z,2.52
2017-12-27T09:46:53.013Z,2.57
2017-12-27T09:48:03.014Z,2.47
2017-12-27T09:49:12.728Z,2.5
2017-12-27T09:50:22.715Z,2.5
2017-12-27T09:51:32.690Z,2.52
2017-12-27T09:52:42.664Z,2.51
2017-12-27T09:53:52.642Z,2.54
2017-12-27T09:55:02.623Z,2.46
2017-12-27T09:56:12.344Z,2.43
2017-12-27T09:57:22.324Z,2.36
2017-12-27T09:58:32.307Z,2.25
2017-12-27T09:59:42.022Z,2.3
2017-12-27T10:00:51.477Z,2.25
2017-12-27T10:02:01.224Z,2.21
2017-12-27T10:03:11.209Z,2.12
2017-12-27T10:04:21.187Z,2.12
2017-12-27T10:05:31.159Z,2.05
2017-12-27T10:06:40.871Z,2.08
2017-12-27T10:07:50.850Z,2.04
2017-12-27T10:09:00.826Z,2.03
2017-12-27T10:10:10.800Z,2.01
2017-12-27T10:11:20.783Z,1.98
2017-12-27T10:12:30.762Z,1.93
2017-12-27T10:13:40.738Z,1.86
2017-12-27T10:14:50.717Z,1.88
2017-12-27T10:16:00.696Z,1.79
2017-12-27T10:17:10.683Z,1.81
2017-12-27T10:18:20.655Z,1.81
2017-12-27T10:19:30.630Z,1.76
2017-12-27T10:20:40.675Z,1.78
2017-12-27T10:21:50.663Z,1.76
2017-12-27T10:23:00.647Z,1.75
2017-12-27T10:24:10.357Z,1.74
2017-12-27T10:25:20.077Z,1.68
2017-12-27T10:26:29.525Z,1.63
2017-12-27T10:27:38.974Z,1.67
2017-12-27T10:28:48.958Z,1.58
2017-12-27T10:29:58.673Z,1.6
2017-12-27T10:31:08.654Z,1.6
2017-12-27T10:32:18.628Z,1.52
2017-12-27T10:33:28.607Z,1.52
2017-12-27T10:34:38.317Z,1.49
2017-12-27T10:35:48.296Z,1.48
2017-12-27T10:36:58.274Z,1.42
2017-12-27T10:38:08.249Z,1.56
2017-12-27T10:39:17.702Z,1.49
2017-12-27T10:40:27.154Z,1.49
2017-12-27T10:41:36.870Z,1.56
2017-12-27T10:42:46.848Z,1.5
2017-12-27T10:43:56.828Z,1.53
2017-12-27T10:45:06.808Z,1.5
2017-12-27T10:46:16.788Z,1.49
2017-12-27T10:47:26.503Z,1.52
2017-12-27T10:48:36.219Z,1.48
2017-12-27T10:49:45.930Z,1.4
2017-12-27T10:50:55.906Z,1.38
2017-12-27T10:52:05.910Z,1.31
2017-12-27T10:53:15.327Z,1.38
2017-12-27T10:54:25.040Z,1.46
2017-12-27T10:55:34.810Z,1.46
2017-12-27T10:56:44.525Z,1.45
2017-12-27T10:57:54.238Z,1.52
2017-12-27T10:59:04.217Z,1.48
2017-12-27T11:00:13.955Z,1.52
2017-12-27T11:01:23.672Z,1.45
2017-12-27T11:02:33.387Z,1.45
2017-12-27T11:03:43.097Z,1.53
2017-12-27T11:04:52.812Z,1.5
2017-12-27T11:06:02.260Z,1.53
2017-12-27T11:07:12.241Z,1.5
2017-12-27T11:08:22.219Z,1.46
2017-12-27T11:09:31.402Z,1.49
2017-12-27T11:10:41.384Z,1.56
2017-12-27T11:11:50.832Z,1.43
2017-12-27T11:13:00.808Z,1.43
2017-12-27T11:14:11.283Z,1.52
2017-12-27T11:15:20.996Z,1.56
2017-12-27T11:16:30.998Z,1.66
2017-12-27T11:17:40.978Z,1.79
2017-12-27T11:18:50.696Z,1.79
2017-12-27T11:20:00.677Z,1.84
2017-12-27T11:21:10.132Z,1.75
2017-12-27T11:22:19.843Z,1.7
2017-12-27T11:23:29.820Z,1.75
2017-12-27T11:24:39.801Z,1.64
2017-12-27T11:25:49.785Z,1.67
2017-12-27T11:26:59.503Z,1.67
2017-12-27T11:28:09.216Z,1.74
2017-12-27T11:29:18.929Z,1.67
2017-12-27T11:30:28.648Z,1.68
2017-12-27T11:31:38.624Z,1.66
2017-12-27T11:32:48.074Z,1.67
2017-12-27T11:33:58.057Z,1.64
2017-12-27T11:35:08.037Z,1.79
2017-12-27T11:36:17.484Z,1.74
2017-12-27T11:37:26.672Z,1.79
2017-12-27T11:38:36.388Z,1.82
2017-12-27T11:39:46.374Z,1.98
2017-12-27T11:40:56.351Z,1.98
2017-12-27T11:42:06.331Z,1.95
2017-12-27T11:43:16.048Z,2.04
2017-12-27T11:44:26.024Z,2.03
2017-12-27T11:45:35.740Z,2.04
2017-12-27T11:46:45.744Z,2.1
2017-12-27T11:47:55.725Z,2.21
2017-12-27T11:49:05.706Z,2.16
2017-12-27T11:50:15.685Z,2.04
2017-12-27T11:51:25.660Z,2.23
2017-12-27T11:52:35.643Z,2.21
2017-12-27T11:53:45.359Z,2.21
2017-12-27T11:54:55.341Z,2.22
2017-12-27T11:56:05.060Z,2.19
2017-12-27T11:57:15.039Z,2.23
2017-12-27T11:58:25.016Z,2.19
2017-12-27T11:59:34.996Z,2.15
2017-12-27T12:00:44.712Z,2.1
2017-12-27T12:01:54.426Z,2.14
2017-12-27T12:03:04.142Z,2.16
2017-12-27T12:04:13.853Z,2
2017-12-27T12:05:23.567Z,2.03
2017-12-27T12:06:33.283Z,1.84
2017-12-27T12:07:42.996Z,1.75
2017-12-27T12:08:52.721Z,1.68
2017-12-27T12:10:02.437Z,1.76
2017-12-27T12:11:12.154Z,1.75
2017-12-27T12:12:22.131Z,1.82
2017-12-27T12:13:32.108Z,1.84
2017-12-27T12:14:42.088Z,1.88
2017-12-27T12:15:52.069Z,1.92
2017-12-27T12:17:02.049Z,1.92
2017-12-27T12:18:12.028Z,1.95
2017-12-27T12:19:21.738Z,1.98
2017-12-27T12:20:31.454Z,1.95
2017-12-27T12:21:41.165Z,2
2017-12-27T12:22:50.892Z,2.07
2017-12-27T12:24:02.874Z,2.16
2017-12-27T12:25:12.850Z,2.22
2017-12-27T12:26:22.831Z,2.28
2017-12-27T12:27:32.810Z,2.36
2017-12-27T12:28:42.787Z,2.37
2017-12-27T12:29:52.771Z,2.34
2017-12-27T12:31:02.495Z,2.4
2017-12-27T12:32:12.481Z,2.32
2017-12-27T12:33:21.930Z,2.26
2017-12-27T12:34:31.642Z,2.25
2017-12-27T12:35:41.361Z,2.18
2017-12-27T12:36:51.349Z,2.07
2017-12-27T12:38:01.324Z,1.97
2017-12-27T12:39:11.302Z,1.88
2017-12-27T12:40:21.013Z,1.88
2017-12-27T12:41:30.992Z,1.88
2017-12-27T12:42:40.711Z,1.92
2017-12-27T12:43:50.692Z,1.92
2017-12-27T12:45:00.669Z,1.75
2017-12-27T12:46:10.662Z,1.6
2017-12-27T12:47:20.378Z,1.49
2017-12-27T12:48:30.108Z,1.39
2017-12-27T12:49:40.082Z,1.45
2017-12-27T12:50:50.057Z,1.42
2017-12-27T12:52:00.043Z,1.45
2017-12-27T12:53:09.492Z,1.32
2017-12-27T12:54:19.474Z,1.22
2017-12-27T12:55:29.463Z,1.12
2017-12-27T12:56:39.226Z,1.14
2017-12-27T12:57:49.214Z,1.1
2017-12-27T12:58:59.206Z,1.04
2017-12-27T13:00:08.683Z,1.06
2017-12-27T13:01:18.133Z,0.99
2017-12-27T13:02:27.843Z,0.95
2017-12-27T13:03:37.555Z,0.99
2017-12-27T13:04:47.539Z,0.94
2017-12-27T13:05:57.256Z,0.92
2017-12-27T13:07:07.280Z,0.91
2017-12-27T13:08:17.258Z,0.91
2017-12-27T13:09:27.233Z,0.99
2017-12-27T13:10:37.207Z,0.95
2017-12-27T13:11:47.191Z,0.95
2017-12-27T13:12:57.170Z,1.06
2017-12-27T13:14:07.166Z,1.09
2017-12-27T13:15:16.877Z,1.04
2017-12-27T13:16:26.846Z,1.02
2017-12-27T13:17:36.827Z,1
2017-12-27T13:18:46.272Z,0.91
2017-12-27T13:19:55.986Z,0.92
2017-12-27T13:21:05.967Z,0.92
2017-12-27T13:22:15.414Z,0.89
2017-12-27T13:23:25.393Z,0.85
2017-12-27T13:24:35.372Z,0.85
2017-12-27T13:25:45.349Z,0.85
2017-12-27T13:26:55.325Z,0.67
2017-12-27T13:28:05.305Z,0.74
2017-12-27T13:29:15.020Z,0.7
2017-12-27T13:30:24.731Z,0.68
2017-12-27T13:31:34.177Z,0.67
2017-12-27T13:32:44.155Z,0.63
2017-12-27T13:33:53.894Z,0.56
2017-12-27T13:35:03.869Z,0.59
2017-12-27T13:36:13.852Z,0.55
2017-12-27T13:37:23.827Z,0.47
2017-12-27T13:38:33.800Z,0.47
2017-12-27T13:39:43.773Z,0.45
2017-12-27T13:40:53.749Z,0.45
2017-12-27T13:42:03.731Z,0.4
2017-12-27T13:43:13.708Z,0.39
2017-12-27T13:44:23.690Z,0.37
2017-12-27T13:45:33.662Z,0.34
2017-12-27T13:46:43.640Z,0.26
2017-12-27T13:47:53.351Z,0.2
2017-12-27T13:49:03.067Z,0.18
2017-12-27T13:50:12.789Z,0.18
2017-12-27T13:51:22.501Z,0.08
2017-12-27T13:52:32.478Z,0.12
2017-12-27T13:53:42.189Z,0.08
2017-12-27T13:54:52.222Z,0.05
2017-12-27T13:56:01.932Z,0.01
2017-12-27T13:57:11.908Z,0.08
2017-12-27T13:58:21.886Z,0.18
2017-12-27T13:59:31.866Z,0.23
2017-12-27T14:00:41.896Z,0.18
2017-12-27T14:01:51.881Z,0.27
2017-12-27T14:03:01.583Z,0.29
2017-12-27T14:04:11.035Z,0.29
2017-12-27T14:05:20.480Z,0.26
2017-12-27T14:06:30.515Z,0.24
2017-12-27T14:07:40.222Z,0.19
2017-12-27T14:08:52.235Z,0.24
2017-12-27T14:10:02.210Z,0.29
2017-12-27T14:11:12.188Z,0.31
2017-12-27T14:12:22.166Z,0.27
2017-12-27T14:13:31.620Z,0.3
2017-12-27T14:14:41.602Z,0.33
2017-12-27T14:15:51.578Z,0.29
2017-12-27T14:17:01.292Z,0.26
2017-12-27T14:18:11.266Z,0.2
2017-12-27T14:19:20.974Z,0.24
2017-12-27T14:20:30.947Z,0.2
2017-12-27T14:21:40.655Z,0.16
2017-12-27T14:22:50.638Z,0.12
2017-12-27T14:24:00.627Z,0.15
2017-12-27T14:25:10.077Z,0.09
2017-12-27T14:26:19.787Z,0
2017-12-27T14:27:29.232Z,0.08
2017-12-27T14:28:39.207Z,-0.06
2017-12-27T14:29:49.190Z,-0.03
2017-12-27T14:30:59.172Z,-0.05
2017-12-27T14:32:09.153Z,-0.2
2017-12-27T14:33:18.864Z,-0.31
2017-12-27T14:34:28.576Z,-0.17
2017-12-27T14:35:38.549Z,-0.06
2017-12-27T14:36:48.531Z,-0.17
2017-12-27T14:37:58.247Z,-0.05
2017-12-27T14:39:08.242Z,-0.05
2017-12-27T14:40:18.216Z,0.01
2017-12-27T14:41:27.939Z,0.08
2017-12-27T14:42:37.654Z,0.06
2017-12-27T14:43:47.101Z,0.09
2017-12-27T14:44:56.815Z,0.06
2017-12-27T14:46:06.801Z,0.05
2017-12-27T14:47:16.513Z,0.09
2017-12-27T14:48:26.227Z,0.06
2017-12-27T14:49:36.205Z,-0.02
2017-12-27T14:50:46.180Z,-0.02
2017-12-27T14:51:55.893Z,-0.03
2017-12-27T14:53:05.871Z,-0.03
2017-12-27T14:54:15.849Z,-0.18
2017-12-27T14:55:27.295Z,-0.15
2017-12-27T14:56:37.274Z,-0.17
2017-12-27T14:57:47.252Z,-0.12
2017-12-27T14:58:57.227Z,-0.12
2017-12-27T15:00:07.204Z,-0.17
2017-12-27T15:01:16.916Z,-0.24
2017-12-27T15:02:26.897Z,-0.3
2017-12-27T15:03:36.609Z,-0.3
2017-12-27T15:04:46.632Z,-0.36
2017-12-27T15:05:56.353Z,-0.35
2017-12-27T15:07:06.341Z,-0.42
2017-12-27T15:08:16.052Z,-0.38
2017-12-27T15:09:26.047Z,-0.39
2017-12-27T15:10:36.019Z,-0.38
2017-12-27T15:11:45.733Z,-0.45
2017-12-27T15:12:55.448Z,-0.39
2017-12-27T15:14:05.428Z,-0.46
2017-12-27T15:15:14.936Z,-0.44
2017-12-27T15:16:24.649Z,-0.48
2017-12-27T15:17:34.364Z,-0.38
2017-12-27T15:18:44.344Z,-0.31
2017-12-27T15:19:54.099Z,-0.26
2017-12-27T15:21:04.074Z,-0.31
2017-12-27T15:22:14.056Z,-0.21
2017-12-27T15:23:23.768Z,-0.2
2017-12-27T15:24:33.476Z,-0.27
2017-12-27T15:25:43.189Z,-0.3
2017-12-27T15:26:53.163Z,-0.15
2017-12-27T15:28:02.876Z,-0.2
2017-12-27T15:29:12.916Z,-0.24
2017-12-27T15:30:22.893Z,-0.1
2017-12-27T15:31:32.658Z,-0.17
2017-12-27T15:32:42.371Z,-0.24
2017-12-27T15:33:52.348Z,-0.28
2017-12-27T15:35:02.055Z,-0.36